sensor_id;sensor_type;location;lat;lon;timestamp;P1;durP1;ratioP1;P2;durP2;ratioP2
10699;SDS011;5401;41.986;21.452;2023-02-11T00:01:27;128.20;;;77.17;;
10699;SDS011;5401;41.986;21.452;2023-02-11T00:03:55;121.83;;;70.03;;
10699;SDS011;5401;41.986;21.452;2023-02-11T00:06:24;123.27;;;74.13;;
10699;SDS011;5401;41.986;21.452;2023-02-11T00:08:53;112.50;;;65.60;;
10699;SDS011;5401;41.986;21.452;2023-02-11T00:11:22;132.80;;;77.80;;
10699;SDS011;5401;41.986;21.452;2023-02-11T00:13:55;149.40;;;87.57;;
10699;SDS011;5401;41.986;21.452;2023-02-11T00:16:24;152.07;;;87.33;;
10699;SDS011;5401;41.986;21.452;2023-02-11T00:18:52;147.73;;;86.97;;
10699;SDS011;5401;41.986;21.452;2023-02-11T00:21:20;153.50;;;87.17;;
10699;SDS011;5401;41.986;21.452;2023-02-11T00:23:48;160.40;;;95.27;;
10699;SDS011;5401;41.986;21.452;2023-02-11T00:26:17;157.67;;;94.93;;
10699;SDS011;5401;41.986;21.452;2023-02-11T00:28:47;168.20;;;101.00;;
10699;SDS011;5401;41.986;21.452;2023-02-11T00:31:16;156.57;;;91.77;;
10699;SDS011;5401;41.986;21.452;2023-02-11T00:33:46;172.00;;;96.07;;
10699;SDS011;5401;41.986;21.452;2023-02-11T00:36:15;176.33;;;101.17;;
10699;SDS011;5401;41.986;21.452;2023-02-11T00:38:43;163.83;;;97.57;;
10699;SDS011;5401;41.986;21.452;2023-02-11T00:41:11;164.10;;;95.40;;
10699;SDS011;5401;41.986;21.452;2023-02-11T00:43:39;140.67;;;84.23;;
10699;SDS011;5401;41.986;21.452;2023-02-11T00:46:08;127.33;;;73.20;;
10699;SDS011;5401;41.986;21.452;2023-02-11T00:48:35;105.33;;;63.47;;
10699;SDS011;5401;41.986;21.452;2023-02-11T00:51:05;110.50;;;62.27;;
10699;SDS011;5401;41.986;21.452;2023-02-11T00:53:33;105.13;;;59.60;;
10699;SDS011;5401;41.986;21.452;2023-02-11T00:56:02;111.03;;;60.17;;
10699;SDS011;5401;41.986;21.452;2023-02-11T00:58:30;118.43;;;60.63;;
10699;SDS011;5401;41.986;21.452;2023-02-11T01:00:57;111.53;;;60.80;;
10699;SDS011;5401;41.986;21.452;2023-02-11T01:03:25;128.90;;;70.00;;
10699;SDS011;5401;41.986;21.452;2023-02-11T01:05:53;127.33;;;66.60;;
10699;SDS011;5401;41.986;21.452;2023-02-11T01:08:22;121.47;;;61.53;;
10699;SDS011;5401;41.986;21.452;2023-02-11T01:10:53;102.53;;;61.27;;
10699;SDS011;5401;41.986;21.452;2023-02-11T01:13:22;99.17;;;57.73;;
10699;SDS011;5401;41.986;21.452;2023-02-11T01:15:50;89.80;;;56.03;;
10699;SDS011;5401;41.986;21.452;2023-02-11T01:18:17;103.87;;;54.83;;
10699;SDS011;5401;41.986;21.452;2023-02-11T01:20:45;78.90;;;45.17;;
10699;SDS011;5401;41.986;21.452;2023-02-11T01:23:12;76.97;;;48.00;;
10699;SDS011;5401;41.986;21.452;2023-02-11T01:25:41;85.23;;;53.27;;
10699;SDS011;5401;41.986;21.452;2023-02-11T01:28:11;106.87;;;61.67;;
10699;SDS011;5401;41.986;21.452;2023-02-11T01:30:42;116.03;;;64.03;;
10699;SDS011;5401;41.986;21.452;2023-02-11T01:33:09;122.00;;;67.23;;
10699;SDS011;5401;41.986;21.452;2023-02-11T01:35:37;91.57;;;54.13;;
10699;SDS011;5401;41.986;21.452;2023-02-11T01:38:05;113.83;;;62.87;;
10699;SDS011;5401;41.986;21.452;2023-02-11T01:40:33;111.00;;;60.70;;
10699;SDS011;5401;41.986;21.452;2023-02-11T01:43:02;85.83;;;49.43;;
10699;SDS011;5401;41.986;21.452;2023-02-11T01:45:51;115.40;;;66.23;;
10699;SDS011;5401;41.986;21.452;2023-02-11T01:48:24;104.83;;;61.73;;
10699;SDS011;5401;41.986;21.452;2023-02-11T01:50:56;109.90;;;64.47;;
10699;SDS011;5401;41.986;21.452;2023-02-11T01:53:27;106.77;;;65.80;;
10699;SDS011;5401;41.986;21.452;2023-02-11T01:56:15;127.43;;;69.43;;
10699;SDS011;5401;41.986;21.452;2023-02-11T01:59:06;126.97;;;67.90;;
10699;SDS011;5401;41.986;21.452;2023-02-11T02:01:39;85.53;;;52.43;;
10699;SDS011;5401;41.986;21.452;2023-02-11T02:04:13;113.13;;;70.40;;
10699;SDS011;5401;41.986;21.452;2023-02-11T02:06:46;113.07;;;68.33;;
10699;SDS011;5401;41.986;21.452;2023-02-11T02:09:19;130.43;;;75.80;;
10699;SDS011;5401;41.986;21.452;2023-02-11T02:11:49;124.60;;;69.60;;
10699;SDS011;5401;41.986;21.452;2023-02-11T02:14:18;127.20;;;74.53;;
10699;SDS011;5401;41.986;21.452;2023-02-11T02:16:46;132.97;;;79.83;;
10699;SDS011;5401;41.986;21.452;2023-02-11T02:19:25;118.97;;;69.03;;
10699;SDS011;5401;41.986;21.452;2023-02-11T02:22:28;115.93;;;70.40;;
10699;SDS011;5401;41.986;21.452;2023-02-11T02:25:23;116.53;;;70.07;;
10699;SDS011;5401;41.986;21.452;2023-02-11T02:28:14;116.73;;;69.87;;
10699;SDS011;5401;41.986;21.452;2023-02-11T02:31:14;114.73;;;69.27;;
10699;SDS011;5401;41.986;21.452;2023-02-11T02:33:53;117.43;;;68.53;;
10699;SDS011;5401;41.986;21.452;2023-02-11T02:36:27;117.47;;;69.17;;
10699;SDS011;5401;41.986;21.452;2023-02-11T02:39:01;122.60;;;69.90;;
10699;SDS011;5401;41.986;21.452;2023-02-11T02:41:32;121.43;;;69.63;;
10699;SDS011;5401;41.986;21.452;2023-02-11T02:44:02;126.63;;;75.20;;
10699;SDS011;5401;41.986;21.452;2023-02-11T02:46:32;138.53;;;78.13;;
10699;SDS011;5401;41.986;21.452;2023-02-11T02:49:02;137.73;;;77.50;;
10699;SDS011;5401;41.986;21.452;2023-02-11T02:51:39;142.70;;;81.57;;
10699;SDS011;5401;41.986;21.452;2023-02-11T02:54:28;141.77;;;79.57;;
10699;SDS011;5401;41.986;21.452;2023-02-11T02:57:22;136.53;;;76.93;;
10699;SDS011;5401;41.986;21.452;2023-02-11T03:00:00;118.57;;;68.90;;
10699;SDS011;5401;41.986;21.452;2023-02-11T03:02:38;118.97;;;68.47;;
10699;SDS011;5401;41.986;21.452;2023-02-11T03:05:19;131.13;;;69.47;;
10699;SDS011;5401;41.986;21.452;2023-02-11T03:07:54;135.07;;;72.53;;
10699;SDS011;5401;41.986;21.452;2023-02-11T03:10:27;128.00;;;76.80;;
10699;SDS011;5401;41.986;21.452;2023-02-11T03:12:57;123.03;;;72.60;;
10699;SDS011;5401;41.986;21.452;2023-02-11T03:15:26;114.67;;;67.43;;
10699;SDS011;5401;41.986;21.452;2023-02-11T03:17:58;117.20;;;71.67;;
10699;SDS011;5401;41.986;21.452;2023-02-11T03:20:29;119.37;;;67.80;;
10699;SDS011;5401;41.986;21.452;2023-02-11T03:23:04;118.83;;;69.27;;
10699;SDS011;5401;41.986;21.452;2023-02-11T03:25:36;109.73;;;65.73;;
10699;SDS011;5401;41.986;21.452;2023-02-11T03:28:09;121.67;;;70.50;;
10699;SDS011;5401;41.986;21.452;2023-02-11T03:30:43;123.23;;;69.83;;
10699;SDS011;5401;41.986;21.452;2023-02-11T03:33:16;111.00;;;64.50;;
10699;SDS011;5401;41.986;21.452;2023-02-11T03:35:50;106.93;;;64.10;;
10699;SDS011;5401;41.986;21.452;2023-02-11T03:38:23;111.57;;;63.87;;
10699;SDS011;5401;41.986;21.452;2023-02-11T03:40:55;114.77;;;65.27;;
10699;SDS011;5401;41.986;21.452;2023-02-11T03:43:25;110.43;;;63.40;;
10699;SDS011;5401;41.986;21.452;2023-02-11T03:45:56;119.67;;;69.13;;
10699;SDS011;5401;41.986;21.452;2023-02-11T03:48:27;107.13;;;62.73;;
10699;SDS011;5401;41.986;21.452;2023-02-11T03:51:00;106.67;;;64.20;;
10699;SDS011;5401;41.986;21.452;2023-02-11T03:53:31;123.40;;;67.00;;
10699;SDS011;5401;41.986;21.452;2023-02-11T03:55:59;119.87;;;64.83;;
10699;SDS011;5401;41.986;21.452;2023-02-11T03:58:29;114.83;;;65.27;;
10699;SDS011;5401;41.986;21.452;2023-02-11T04:00:56;110.40;;;63.93;;
10699;SDS011;5401;41.986;21.452;2023-02-11T04:03:24;113.20;;;66.23;;
10699;SDS011;5401;41.986;21.452;2023-02-11T04:05:52;103.00;;;58.60;;
10699;SDS011;5401;41.986;21.452;2023-02-11T04:08:21;104.20;;;62.70;;
10699;SDS011;5401;41.986;21.452;2023-02-11T04:10:48;106.47;;;65.83;;
10699;SDS011;5401;41.986;21.452;2023-02-11T04:13:17;108.72;;;62.22;;
10699;SDS011;5401;41.986;21.452;2023-02-11T04:15:44;96.43;;;58.57;;
10699;SDS011;5401;41.986;21.452;2023-02-11T04:18:12;90.10;;;52.93;;
10699;SDS011;5401;41.986;21.452;2023-02-11T04:20:40;82.37;;;49.60;;
10699;SDS011;5401;41.986;21.452;2023-02-11T04:23:07;94.20;;;53.83;;
10699;SDS011;5401;41.986;21.452;2023-02-11T04:25:36;99.10;;;55.37;;
10699;SDS011;5401;41.986;21.452;2023-02-11T04:28:03;95.60;;;55.17;;
10699;SDS011;5401;41.986;21.452;2023-02-11T04:30:31;93.93;;;55.73;;
10699;SDS011;5401;41.986;21.452;2023-02-11T04:32:58;94.43;;;55.97;;
10699;SDS011;5401;41.986;21.452;2023-02-11T04:35:26;95.30;;;55.57;;
10699;SDS011;5401;41.986;21.452;2023-02-11T04:37:53;91.17;;;53.20;;
10699;SDS011;5401;41.986;21.452;2023-02-11T04:40:21;93.37;;;55.83;;
10699;SDS011;5401;41.986;21.452;2023-02-11T04:42:49;94.00;;;54.60;;
10699;SDS011;5401;41.986;21.452;2023-02-11T04:45:17;94.10;;;54.00;;
10699;SDS011;5401;41.986;21.452;2023-02-11T04:47:44;90.30;;;53.37;;
10699;SDS011;5401;41.986;21.452;2023-02-11T04:50:12;96.30;;;56.10;;
10699;SDS011;5401;41.986;21.452;2023-02-11T04:52:39;93.20;;;55.40;;
10699;SDS011;5401;41.986;21.452;2023-02-11T04:55:07;97.10;;;55.07;;
10699;SDS011;5401;41.986;21.452;2023-02-11T04:57:34;89.83;;;54.90;;
10699;SDS011;5401;41.986;21.452;2023-02-11T05:00:04;100.80;;;58.87;;
10699;SDS011;5401;41.986;21.452;2023-02-11T05:02:32;106.20;;;59.13;;
10699;SDS011;5401;41.986;21.452;2023-02-11T05:05:00;92.20;;;53.67;;
10699;SDS011;5401;41.986;21.452;2023-02-11T05:07:27;89.57;;;53.83;;
10699;SDS011;5401;41.986;21.452;2023-02-11T05:09:55;93.03;;;54.47;;
10699;SDS011;5401;41.986;21.452;2023-02-11T05:12:22;84.00;;;48.57;;
10699;SDS011;5401;41.986;21.452;2023-02-11T05:14:50;83.87;;;50.13;;
10699;SDS011;5401;41.986;21.452;2023-02-11T05:17:19;85.80;;;50.00;;
10699;SDS011;5401;41.986;21.452;2023-02-11T05:19:46;82.13;;;47.63;;
10699;SDS011;5401;41.986;21.452;2023-02-11T05:22:13;87.83;;;47.80;;
10699;SDS011;5401;41.986;21.452;2023-02-11T05:24:41;79.37;;;47.17;;
10699;SDS011;5401;41.986;21.452;2023-02-11T05:27:08;83.10;;;48.37;;
10699;SDS011;5401;41.986;21.452;2023-02-11T05:29:36;83.67;;;47.77;;
10699;SDS011;5401;41.986;21.452;2023-02-11T05:32:04;82.63;;;47.77;;
10699;SDS011;5401;41.986;21.452;2023-02-11T05:34:33;85.33;;;48.73;;
10699;SDS011;5401;41.986;21.452;2023-02-11T05:37:00;85.90;;;48.10;;
10699;SDS011;5401;41.986;21.452;2023-02-11T05:39:28;83.20;;;47.73;;
10699;SDS011;5401;41.986;21.452;2023-02-11T05:41:55;81.53;;;46.97;;
10699;SDS011;5401;41.986;21.452;2023-02-11T05:44:23;82.00;;;46.83;;
10699;SDS011;5401;41.986;21.452;2023-02-11T05:46:50;70.60;;;43.03;;
10699;SDS011;5401;41.986;21.452;2023-02-11T05:49:18;71.37;;;43.13;;
10699;SDS011;5401;41.986;21.452;2023-02-11T05:51:47;61.07;;;39.03;;
10699;SDS011;5401;41.986;21.452;2023-02-11T05:54:15;58.37;;;35.13;;
10699;SDS011;5401;41.986;21.452;2023-02-11T05:56:43;63.30;;;37.40;;
10699;SDS011;5401;41.986;21.452;2023-02-11T05:59:11;72.17;;;42.00;;
10699;SDS011;5401;41.986;21.452;2023-02-11T06:01:39;67.73;;;40.93;;
10699;SDS011;5401;41.986;21.452;2023-02-11T06:04:07;82.13;;;44.20;;
10699;SDS011;5401;41.986;21.452;2023-02-11T06:06:34;81.83;;;42.77;;
10699;SDS011;5401;41.986;21.452;2023-02-11T06:09:04;93.67;;;42.90;;
10699;SDS011;5401;41.986;21.452;2023-02-11T06:11:32;68.17;;;42.47;;
10699;SDS011;5401;41.986;21.452;2023-02-11T06:14:00;69.63;;;40.27;;
10699;SDS011;5401;41.986;21.452;2023-02-11T06:16:27;79.50;;;42.67;;
10699;SDS011;5401;41.986;21.452;2023-02-11T06:18:55;82.33;;;48.00;;
10699;SDS011;5401;41.986;21.452;2023-02-11T06:21:22;73.37;;;44.47;;
10699;SDS011;5401;41.986;21.452;2023-02-11T06:23:50;76.57;;;46.27;;
10699;SDS011;5401;41.986;21.452;2023-02-11T06:26:20;69.97;;;44.70;;
10699;SDS011;5401;41.986;21.452;2023-02-11T06:28:48;68.57;;;43.73;;
10699;SDS011;5401;41.986;21.452;2023-02-11T06:31:16;60.60;;;37.60;;
10699;SDS011;5401;41.986;21.452;2023-02-11T06:33:43;68.97;;;39.47;;
10699;SDS011;5401;41.986;21.452;2023-02-11T06:36:12;62.30;;;36.67;;
10699;SDS011;5401;41.986;21.452;2023-02-11T06:38:40;42.80;;;27.70;;
10699;SDS011;5401;41.986;21.452;2023-02-11T06:41:08;39.47;;;24.20;;
10699;SDS011;5401;41.986;21.452;2023-02-11T06:43:38;48.23;;;30.27;;
10699;SDS011;5401;41.986;21.452;2023-02-11T06:46:06;51.97;;;29.07;;
10699;SDS011;5401;41.986;21.452;2023-02-11T06:48:34;38.27;;;25.30;;
10699;SDS011;5401;41.986;21.452;2023-02-11T06:51:02;39.83;;;26.47;;
10699;SDS011;5401;41.986;21.452;2023-02-11T06:53:34;35.03;;;22.37;;
10699;SDS011;5401;41.986;21.452;2023-02-11T06:56:02;38.13;;;23.47;;
10699;SDS011;5401;41.986;21.452;2023-02-11T06:58:30;35.00;;;22.47;;
10699;SDS011;5401;41.986;21.452;2023-02-11T07:01:02;34.13;;;22.00;;
10699;SDS011;5401;41.986;21.452;2023-02-11T07:03:31;34.53;;;23.17;;
10699;SDS011;5401;41.986;21.452;2023-02-11T07:05:59;43.80;;;26.57;;
10699;SDS011;5401;41.986;21.452;2023-02-11T07:08:27;36.30;;;22.73;;
10699;SDS011;5401;41.986;21.452;2023-02-11T07:10:54;36.57;;;23.43;;
10699;SDS011;5401;41.986;21.452;2023-02-11T07:13:22;38.53;;;26.57;;
10699;SDS011;5401;41.986;21.452;2023-02-11T07:15:49;38.70;;;23.80;;
10699;SDS011;5401;41.986;21.452;2023-02-11T07:18:18;38.57;;;24.37;;
10699;SDS011;5401;41.986;21.452;2023-02-11T07:20:46;43.93;;;28.37;;
10699;SDS011;5401;41.986;21.452;2023-02-11T07:23:13;41.23;;;24.53;;
10699;SDS011;5401;41.986;21.452;2023-02-11T07:25:41;40.07;;;24.37;;
10699;SDS011;5401;41.986;21.452;2023-02-11T07:28:08;37.47;;;25.33;;
10699;SDS011;5401;41.986;21.452;2023-02-11T07:30:36;30.63;;;22.40;;
10699;SDS011;5401;41.986;21.452;2023-02-11T07:33:03;33.93;;;22.97;;
10699;SDS011;5401;41.986;21.452;2023-02-11T07:35:32;31.80;;;23.13;;
10699;SDS011;5401;41.986;21.452;2023-02-11T07:38:00;33.57;;;22.60;;
10699;SDS011;5401;41.986;21.452;2023-02-11T07:40:28;36.63;;;20.97;;
10699;SDS011;5401;41.986;21.452;2023-02-11T07:42:56;33.83;;;20.90;;
10699;SDS011;5401;41.986;21.452;2023-02-11T07:45:23;32.43;;;21.57;;
10699;SDS011;5401;41.986;21.452;2023-02-11T07:47:51;36.17;;;24.80;;
10699;SDS011;5401;41.986;21.452;2023-02-11T07:50:18;33.90;;;23.93;;
10699;SDS011;5401;41.986;21.452;2023-02-11T07:52:47;33.90;;;24.10;;
10699;SDS011;5401;41.986;21.452;2023-02-11T07:55:15;47.63;;;23.57;;
10699;SDS011;5401;41.986;21.452;2023-02-11T07:57:42;34.67;;;23.50;;
10699;SDS011;5401;41.986;21.452;2023-02-11T08:00:10;38.33;;;23.60;;
10699;SDS011;5401;41.986;21.452;2023-02-11T08:02:39;36.20;;;24.57;;
10699;SDS011;5401;41.986;21.452;2023-02-11T08:05:06;36.13;;;23.73;;
10699;SDS011;5401;41.986;21.452;2023-02-11T08:07:34;48.30;;;30.27;;
10699;SDS011;5401;41.986;21.452;2023-02-11T08:10:03;36.13;;;23.80;;
10699;SDS011;5401;41.986;21.452;2023-02-11T08:12:31;38.77;;;23.33;;
10699;SDS011;5401;41.986;21.452;2023-02-11T08:14:59;34.20;;;21.33;;
10699;SDS011;5401;41.986;21.452;2023-02-11T08:17:26;39.57;;;23.80;;
10699;SDS011;5401;41.986;21.452;2023-02-11T08:19:54;32.27;;;22.97;;
10699;SDS011;5401;41.986;21.452;2023-02-11T08:22:21;32.37;;;22.43;;
10699;SDS011;5401;41.986;21.452;2023-02-11T08:24:49;33.07;;;22.70;;
10699;SDS011;5401;41.986;21.452;2023-02-11T08:27:18;35.13;;;24.93;;
10699;SDS011;5401;41.986;21.452;2023-02-11T08:29:45;42.33;;;24.10;;
10699;SDS011;5401;41.986;21.452;2023-02-11T08:32:13;35.77;;;24.47;;
10699;SDS011;5401;41.986;21.452;2023-02-11T08:34:40;38.73;;;25.23;;
10699;SDS011;5401;41.986;21.452;2023-02-11T08:37:08;37.37;;;26.53;;
10699;SDS011;5401;41.986;21.452;2023-02-11T08:39:35;39.20;;;28.03;;
10699;SDS011;5401;41.986;21.452;2023-02-11T08:42:03;40.10;;;29.07;;
10699;SDS011;5401;41.986;21.452;2023-02-11T08:44:32;46.63;;;31.73;;
10699;SDS011;5401;41.986;21.452;2023-02-11T08:46:59;46.47;;;30.77;;
10699;SDS011;5401;41.986;21.452;2023-02-11T08:49:26;52.10;;;34.57;;
10699;SDS011;5401;41.986;21.452;2023-02-11T08:51:55;58.93;;;38.53;;
10699;SDS011;5401;41.986;21.452;2023-02-11T08:54:26;54.60;;;38.27;;
10699;SDS011;5401;41.986;21.452;2023-02-11T08:56:54;58.23;;;36.97;;
10699;SDS011;5401;41.986;21.452;2023-02-11T08:59:22;58.03;;;37.87;;
10699;SDS011;5401;41.986;21.452;2023-02-11T09:01:51;65.43;;;36.30;;
10699;SDS011;5401;41.986;21.452;2023-02-11T09:04:18;60.90;;;38.97;;
10699;SDS011;5401;41.986;21.452;2023-02-11T09:06:46;60.57;;;41.40;;
10699;SDS011;5401;41.986;21.452;2023-02-11T09:09:14;69.80;;;41.93;;
10699;SDS011;5401;41.986;21.452;2023-02-11T09:11:42;65.17;;;42.27;;
10699;SDS011;5401;41.986;21.452;2023-02-11T09:14:14;69.60;;;42.80;;
10699;SDS011;5401;41.986;21.452;2023-02-11T09:16:44;60.67;;;40.07;;
10699;SDS011;5401;41.986;21.452;2023-02-11T09:19:13;64.73;;;42.23;;
10699;SDS011;5401;41.986;21.452;2023-02-11T09:21:40;59.17;;;38.97;;
10699;SDS011;5401;41.986;21.452;2023-02-11T09:24:08;63.37;;;37.90;;
10699;SDS011;5401;41.986;21.452;2023-02-11T09:26:36;55.87;;;38.00;;
10699;SDS011;5401;41.986;21.452;2023-02-11T09:29:04;68.00;;;38.03;;
10699;SDS011;5401;41.986;21.452;2023-02-11T09:31:32;57.97;;;37.37;;
10699;SDS011;5401;41.986;21.452;2023-02-11T09:34:02;60.53;;;38.33;;
10699;SDS011;5401;41.986;21.452;2023-02-11T09:36:33;59.17;;;37.57;;
10699;SDS011;5401;41.986;21.452;2023-02-11T09:39:03;51.63;;;34.43;;
10699;SDS011;5401;41.986;21.452;2023-02-11T09:41:34;46.87;;;31.77;;
10699;SDS011;5401;41.986;21.452;2023-02-11T09:44:16;45.83;;;31.17;;
10699;SDS011;5401;41.986;21.452;2023-02-11T09:46:45;49.97;;;33.50;;
10699;SDS011;5401;41.986;21.452;2023-02-11T09:49:21;52.07;;;34.67;;
10699;SDS011;5401;41.986;21.452;2023-02-11T09:51:57;50.40;;;33.40;;
10699;SDS011;5401;41.986;21.452;2023-02-11T09:54:33;60.23;;;36.27;;
10699;SDS011;5401;41.986;21.452;2023-02-11T09:57:07;56.60;;;34.80;;
10699;SDS011;5401;41.986;21.452;2023-02-11T09:59:35;57.33;;;34.53;;
10699;SDS011;5401;41.986;21.452;2023-02-11T10:02:04;44.53;;;30.30;;
10699;SDS011;5401;41.986;21.452;2023-02-11T10:04:43;40.87;;;27.70;;
10699;SDS011;5401;41.986;21.452;2023-02-11T10:07:30;36.00;;;25.23;;
10699;SDS011;5401;41.986;21.452;2023-02-11T10:10:10;40.43;;;27.80;;
10699;SDS011;5401;41.986;21.452;2023-02-11T10:12:54;41.13;;;29.50;;
10699;SDS011;5401;41.986;21.452;2023-02-11T10:15:35;37.70;;;27.07;;
10699;SDS011;5401;41.986;21.452;2023-02-11T10:18:16;41.83;;;28.57;;
10699;SDS011;5401;41.986;21.452;2023-02-11T10:21:02;33.30;;;23.13;;
10699;SDS011;5401;41.986;21.452;2023-02-11T10:23:38;29.70;;;22.43;;
10699;SDS011;5401;41.986;21.452;2023-02-11T10:26:11;32.33;;;18.97;;
10699;SDS011;5401;41.986;21.452;2023-02-11T10:28:41;28.87;;;20.47;;
10699;SDS011;5401;41.986;21.452;2023-02-11T10:31:12;32.17;;;21.17;;
10699;SDS011;5401;41.986;21.452;2023-02-11T10:33:43;27.93;;;19.27;;
10699;SDS011;5401;41.986;21.452;2023-02-11T10:36:14;31.33;;;20.87;;
10699;SDS011;5401;41.986;21.452;2023-02-11T10:38:44;32.13;;;19.60;;
10699;SDS011;5401;41.986;21.452;2023-02-11T10:41:12;27.67;;;18.93;;
10699;SDS011;5401;41.986;21.452;2023-02-11T10:43:43;25.03;;;18.00;;
10699;SDS011;5401;41.986;21.452;2023-02-11T10:46:14;25.80;;;17.67;;
10699;SDS011;5401;41.986;21.452;2023-02-11T10:48:45;22.53;;;16.87;;
10699;SDS011;5401;41.986;21.452;2023-02-11T10:51:17;33.80;;;17.07;;
10699;SDS011;5401;41.986;21.452;2023-02-11T10:53:48;23.67;;;14.97;;
10699;SDS011;5401;41.986;21.452;2023-02-11T10:56:25;19.10;;;13.27;;
10699;SDS011;5401;41.986;21.452;2023-02-11T10:58:55;20.40;;;13.20;;
10699;SDS011;5401;41.986;21.452;2023-02-11T11:01:38;21.03;;;12.93;;
10699;SDS011;5401;41.986;21.452;2023-02-11T11:04:21;21.50;;;12.30;;
10699;SDS011;5401;41.986;21.452;2023-02-11T11:07:09;20.00;;;11.33;;
10699;SDS011;5401;41.986;21.452;2023-02-11T11:09:44;19.90;;;11.70;;
10699;SDS011;5401;41.986;21.452;2023-02-11T11:12:34;14.60;;;11.80;;
10699;SDS011;5401;41.986;21.452;2023-02-11T11:15:13;14.23;;;10.43;;
10699;SDS011;5401;41.986;21.452;2023-02-11T11:17:43;14.70;;;10.00;;
10699;SDS011;5401;41.986;21.452;2023-02-11T11:23:06;19.10;;;12.97;;
10699;SDS011;5401;41.986;21.452;2023-02-11T11:25:43;21.00;;;12.07;;
10699;SDS011;5401;41.986;21.452;2023-02-11T11:28:24;14.60;;;9.73;;
10699;SDS011;5401;41.986;21.452;2023-02-11T11:30:54;21.03;;;10.90;;
10699;SDS011;5401;41.986;21.452;2023-02-11T11:33:24;16.27;;;10.57;;
10699;SDS011;5401;41.986;21.452;2023-02-11T11:35:56;14.60;;;9.83;;
10699;SDS011;5401;41.986;21.452;2023-02-11T11:38:28;15.17;;;9.90;;
10699;SDS011;5401;41.986;21.452;2023-02-11T11:41:16;15.03;;;9.33;;
10699;SDS011;5401;41.986;21.452;2023-02-11T11:43:53;16.27;;;9.27;;
10699;SDS011;5401;41.986;21.452;2023-02-11T11:46:25;11.33;;;8.80;;
10699;SDS011;5401;41.986;21.452;2023-02-11T11:48:57;18.17;;;10.53;;
10699;SDS011;5401;41.986;21.452;2023-02-11T11:51:31;12.70;;;8.63;;
10699;SDS011;5401;41.986;21.452;2023-02-11T11:54:02;13.60;;;9.37;;
10699;SDS011;5401;41.986;21.452;2023-02-11T11:56:38;14.17;;;9.83;;
10699;SDS011;5401;41.986;21.452;2023-02-11T11:59:13;21.83;;;12.47;;
10699;SDS011;5401;41.986;21.452;2023-02-11T12:01:45;18.90;;;10.70;;
10699;SDS011;5401;41.986;21.452;2023-02-11T12:04:31;21.20;;;9.37;;
10699;SDS011;5401;41.986;21.452;2023-02-11T12:07:10;16.43;;;10.63;;
10699;SDS011;5401;41.986;21.452;2023-02-11T12:09:52;15.47;;;9.67;;
10699;SDS011;5401;41.986;21.452;2023-02-11T12:12:33;15.20;;;10.30;;
10699;SDS011;5401;41.986;21.452;2023-02-11T12:15:13;19.67;;;10.17;;
10699;SDS011;5401;41.986;21.452;2023-02-11T12:17:55;15.73;;;10.27;;
10699;SDS011;5401;41.986;21.452;2023-02-11T12:20:31;22.87;;;16.03;;
10699;SDS011;5401;41.986;21.452;2023-02-11T12:23:22;20.87;;;14.60;;
10699;SDS011;5401;41.986;21.452;2023-02-11T12:26:05;18.30;;;13.30;;
10699;SDS011;5401;41.986;21.452;2023-02-11T12:28:43;32.20;;;21.30;;
10699;SDS011;5401;41.986;21.452;2023-02-11T12:31:44;27.07;;;16.40;;
10699;SDS011;5401;41.986;21.452;2023-02-11T12:34:29;20.07;;;13.83;;
10699;SDS011;5401;41.986;21.452;2023-02-11T12:37:19;17.80;;;11.57;;
10699;SDS011;5401;41.986;21.452;2023-02-11T12:39:56;23.57;;;15.17;;
10699;SDS011;5401;41.986;21.452;2023-02-11T12:42:45;24.87;;;17.20;;
10699;SDS011;5401;41.986;21.452;2023-02-11T12:48:43;26.90;;;15.03;;
10699;SDS011;5401;41.986;21.452;2023-02-11T12:51:36;28.77;;;13.10;;
10699;SDS011;5401;41.986;21.452;2023-02-11T12:54:19;20.13;;;12.97;;
10699;SDS011;5401;41.986;21.452;2023-02-11T12:56:55;21.93;;;13.37;;
10699;SDS011;5401;41.986;21.452;2023-02-11T12:59:30;20.40;;;12.63;;
10699;SDS011;5401;41.986;21.452;2023-02-11T13:02:10;16.27;;;11.80;;
10699;SDS011;5401;41.986;21.452;2023-02-11T13:04:45;18.87;;;13.27;;
10699;SDS011;5401;41.986;21.452;2023-02-11T13:07:18;17.63;;;12.60;;
10699;SDS011;5401;41.986;21.452;2023-02-11T13:09:53;17.20;;;12.30;;
10699;SDS011;5401;41.986;21.452;2023-02-11T13:12:24;17.50;;;13.53;;
10699;SDS011;5401;41.986;21.452;2023-02-11T13:15:13;18.23;;;13.57;;
10699;SDS011;5401;41.986;21.452;2023-02-11T13:17:45;20.27;;;13.13;;
10699;SDS011;5401;41.986;21.452;2023-02-11T13:20:20;27.13;;;13.60;;
10699;SDS011;5401;41.986;21.452;2023-02-11T13:22:59;21.73;;;15.37;;
10699;SDS011;5401;41.986;21.452;2023-02-11T13:25:35;20.03;;;15.37;;
10699;SDS011;5401;41.986;21.452;2023-02-11T13:28:13;25.10;;;15.37;;
10699;SDS011;5401;41.986;21.452;2023-02-11T13:30:49;20.47;;;15.23;;
10699;SDS011;5401;41.986;21.452;2023-02-11T13:33:31;25.40;;;14.87;;
10699;SDS011;5401;41.986;21.452;2023-02-11T13:36:20;23.63;;;13.97;;
10699;SDS011;5401;41.986;21.452;2023-02-11T13:38:53;20.60;;;13.63;;
10699;SDS011;5401;41.986;21.452;2023-02-11T13:41:37;18.00;;;13.80;;
10699;SDS011;5401;41.986;21.452;2023-02-11T13:47:00;19.07;;;13.73;;
10699;SDS011;5401;41.986;21.452;2023-02-11T13:49:33;18.67;;;12.40;;
10699;SDS011;5401;41.986;21.452;2023-02-11T13:52:05;20.63;;;13.97;;
10699;SDS011;5401;41.986;21.452;2023-02-11T13:54:48;20.07;;;13.07;;
10699;SDS011;5401;41.986;21.452;2023-02-11T13:57:28;23.73;;;14.43;;
10699;SDS011;5401;41.986;21.452;2023-02-11T14:06:20;18.57;;;13.67;;
10699;SDS011;5401;41.986;21.452;2023-02-11T14:12:21;19.73;;;14.23;;
10699;SDS011;5401;41.986;21.452;2023-02-11T14:14:57;18.97;;;13.60;;
10699;SDS011;5401;41.986;21.452;2023-02-11T14:17:31;18.67;;;13.83;;
10699;SDS011;5401;41.986;21.452;2023-02-11T14:20:00;21.07;;;14.97;;
10699;SDS011;5401;41.986;21.452;2023-02-11T14:22:38;21.53;;;14.20;;
10699;SDS011;5401;41.986;21.452;2023-02-11T14:25:17;27.47;;;14.97;;
10699;SDS011;5401;41.986;21.452;2023-02-11T14:27:49;17.13;;;13.70;;
10699;SDS011;5401;41.986;21.452;2023-02-11T14:30:25;23.43;;;13.90;;
10699;SDS011;5401;41.986;21.452;2023-02-11T14:39:23;20.17;;;14.50;;
10699;SDS011;5401;41.986;21.452;2023-02-11T14:42:03;24.00;;;16.03;;
10699;SDS011;5401;41.986;21.452;2023-02-11T14:44:31;30.57;;;15.97;;
10699;SDS011;5401;41.986;21.452;2023-02-11T14:47:00;23.90;;;14.77;;
10699;SDS011;5401;41.986;21.452;2023-02-11T14:49:28;16.73;;;13.47;;
10699;SDS011;5401;41.986;21.452;2023-02-11T14:51:58;26.47;;;15.57;;
10699;SDS011;5401;41.986;21.452;2023-02-11T14:54:33;27.77;;;16.77;;
10699;SDS011;5401;41.986;21.452;2023-02-11T14:57:05;22.83;;;14.33;;
10699;SDS011;5401;41.986;21.452;2023-02-11T14:59:34;21.83;;;15.77;;
10699;SDS011;5401;41.986;21.452;2023-02-11T15:02:02;22.03;;;14.37;;
10699;SDS011;5401;41.986;21.452;2023-02-11T15:04:45;18.63;;;14.60;;
10699;SDS011;5401;41.986;21.452;2023-02-11T15:07:12;22.27;;;15.83;;
10699;SDS011;5401;41.986;21.452;2023-02-11T15:09:43;19.17;;;14.50;;
10699;SDS011;5401;41.986;21.452;2023-02-11T15:12:14;20.83;;;14.57;;